Terminal Aerodrome Forecast
Issued by NWS Sterling, VA

Home | Current Version | Previous Version | Text Only | Print | Product List | Glossary On
Versions: 1 2 3 4 5 6 7 8 9 10 11 12 13 14 15 16 17 18 19 20 21 22 23 24 25
000
FTUS41 KLWX 241700
TAFDCA
TAF
KDCA 241734Z 2418/2518 31014G24KT P6SM FEW150 SCT200
     FM242300 31010KT P6SM FEW150 SCT200
     FM250800 31004KT P6SM FEW200=

USA.gov is the U.S. government's official web portal to all federal, state and local government web resources and services.